Time;durP1;ratioP1;P1;durP2;ratioP2;P2;SDS_P1;SDS_P2;PMS_P1;PMS_P2;Temp;Humidity;BMP_temperature;BMP_pressure;BME280_temperature;BME280_humidity;BME280_pressure;Samples;Min_cycle;Max_cycle;Signal;HPM_P1;HPM_P2
2022/04/15 00:00:09;;;;;;;1.47;1.20;;;;;;;;;;5116833;28;20199;-92
2022/04/15 00:02:37;;;;;;;1.67;1.20;;;;;;;;;;5116164;28;20608;-91
2022/04/15 00:05:29;;;;;;;2.17;1.30;;;;;;;;;;5116175;28;20725;-91
2022/04/15 00:07:54;;;;;;;1.83;1.40;;;;;;;;;;5115905;28;20740;-91
2022/04/15 00:10:23;;;;;;;2.70;1.50;;;;;;;;;;5128586;27;20198;-92
2022/04/15 00:12:51;;;;;;;2.77;1.70;;;;;;;;;;5119360;27;20203;-92
2022/04/15 00:15:18;;;;;;;3.20;1.70;;;;;;;;;;5115748;28;20219;-92
2022/04/15 00:17:45;;;;;;;1.60;1.50;;;;;;;;;;5116061;28;20224;-91
2022/04/15 00:20:14;;;;;;;1.57;1.47;;;;;;;;;;5117784;28;20211;-91
2022/04/15 00:22:42;;;;;;;3.17;1.40;;;;;;;;;;5121225;28;20714;-92
2022/04/15 00:25:10;;;;;;;2.23;1.90;;;;;;;;;;5120909;28;20214;-91
2022/04/15 00:27:39;;;;;;;3.07;1.30;;;;;;;;;;5116108;28;20223;-91
2022/04/15 00:30:07;;;;;;;1.90;1.77;;;;;;;;;;5115443;28;20569;-92
2022/04/15 00:32:34;;;;;;;2.17;1.60;;;;;;;;;;5115998;28;20681;-92
2022/04/15 00:35:02;;;;;;;2.80;1.40;;;;;;;;;;5115383;28;20656;-92
2022/04/15 00:37:31;;;;;;;3.10;1.93;;;;;;;;;;5115769;28;20276;-91
2022/04/15 00:39:58;;;;;;;2.13;1.90;;;;;;;;;;5115895;28;20659;-91
2022/04/15 00:42:26;;;;;;;4.13;2.10;;;;;;;;;;5115525;28;20204;-92
2022/04/15 00:44:56;;;;;;;2.10;1.90;;;;;;;;;;5115319;28;20261;-92
2022/04/15 00:47:27;;;;;;;2.53;2.10;;;;;;;;;;5115708;28;20220;-91
2022/04/15 00:49:55;;;;;;;4.90;2.03;;;;;;;;;;5115771;28;20208;-92
2022/04/15 00:52:23;;;;;;;2.20;1.77;;;;;;;;;;5115695;28;20574;-91
2022/04/15 00:54:53;;;;;;;3.20;1.90;;;;;;;;;;5115123;28;20269;-92
2022/04/15 00:57:22;;;;;;;4.37;2.33;;;;;;;;;;5115415;28;20224;-92
2022/04/15 00:59:51;;;;;;;3.47;2.23;;;;;;;;;;5115764;28;20668;-92
2022/04/15 01:02:20;;;;;;;3.03;1.93;;;;;;;;;;5114563;28;20203;-91
2022/04/15 01:04:47;;;;;;;1.90;1.67;;;;;;;;;;5114890;28;20223;-92
2022/04/15 01:07:16;;;;;;;4.10;2.00;;;;;;;;;;5115139;28;20231;-92
2022/04/15 01:09:46;;;;;;;1.70;1.47;;;;;;;;;;5115344;28;20292;-91
2022/04/15 01:12:13;;;;;;;4.00;2.20;;;;;;;;;;5115272;28;20742;-92
2022/04/15 01:14:40;;;;;;;4.20;2.33;;;;;;;;;;5115071;28;20220;-92
2022/04/15 01:17:08;;;;;;;3.83;2.17;;;;;;;;;;5115113;28;20281;-92
2022/04/15 01:19:37;;;;;;;2.70;2.00;;;;;;;;;;5122125;27;20256;-91
2022/04/15 01:22:04;;;;;;;5.00;2.20;;;;;;;;;;5114708;28;20216;-92
2022/04/15 01:24:33;;;;;;;2.43;2.07;;;;;;;;;;5115361;28;20203;-93
2022/04/15 01:27:00;;;;;;;2.20;2.00;;;;;;;;;;5114877;28;20223;-92
2022/04/15 01:29:28;;;;;;;5.73;2.37;;;;;;;;;;5114900;28;20204;-91
2022/04/15 01:32:07;;;;;;;2.77;1.97;;;;;;;;;;5115145;28;20213;-91
2022/04/15 01:34:35;;;;;;;4.27;2.10;;;;;;;;;;5114969;28;20310;-92
2022/04/15 01:37:02;;;;;;;4.50;1.93;;;;;;;;;;5115156;28;20232;-92
2022/04/15 01:39:31;;;;;;;3.07;1.70;;;;;;;;;;5115140;28;20205;-92
2022/04/15 01:42:00;;;;;;;2.80;1.53;;;;;;;;;;5114829;28;20864;-91
2022/04/15 01:44:27;;;;;;;1.63;1.53;;;;;;;;;;5114760;28;20204;-92
2022/04/15 01:46:54;;;;;;;4.57;1.90;;;;;;;;;;5114664;28;20226;-91
2022/04/15 01:49:21;;;;;;;1.70;1.60;;;;;;;;;;5114377;28;20248;-91
2022/04/15 01:51:49;;;;;;;1.90;1.80;;;;;;;;;;5114332;28;20665;-93
2022/04/15 01:54:16;;;;;;;6.00;2.03;;;;;;;;;;5113859;28;20223;-91
2022/04/15 01:56:43;;;;;;;2.60;1.97;;;;;;;;;;5114499;28;20686;-91
2022/04/15 01:59:12;;;;;;;2.63;1.80;;;;;;;;;;5114518;28;20281;-92
2022/04/15 02:01:40;;;;;;;3.57;2.10;;;;;;;;;;5114163;28;20200;-92
2022/04/15 02:04:07;;;;;;;2.07;1.87;;;;;;;;;;5134875;27;20697;-91
2022/04/15 02:06:34;;;;;;;2.03;1.53;;;;;;;;;;5134737;27;20223;-92
2022/04/15 02:09:01;;;;;;;2.40;1.50;;;;;;;;;;5135089;27;20199;-92
2022/04/15 02:11:29;;;;;;;3.57;2.30;;;;;;;;;;5119731;27;20246;-92
2022/04/15 02:13:56;;;;;;;2.27;2.17;;;;;;;;;;5113403;28;20218;-91
2022/04/15 02:16:25;;;;;;;2.03;1.60;;;;;;;;;;5113540;28;20219;-92
2022/04/15 02:18:52;;;;;;;2.53;2.00;;;;;;;;;;5113957;28;20205;-91
2022/04/15 02:21:19;;;;;;;2.03;1.80;;;;;;;;;;5113982;28;20276;-92
2022/04/15 02:23:47;;;;;;;1.90;1.70;;;;;;;;;;5114080;28;20261;-91
2022/04/15 02:26:14;;;;;;;3.83;1.87;;;;;;;;;;5114012;28;20207;-92
2022/04/15 02:28:41;;;;;;;4.03;1.60;;;;;;;;;;5114207;28;20210;-91
2022/04/15 02:31:09;;;;;;;2.33;1.57;;;;;;;;;;5113684;28;20208;-92
2022/04/15 02:33:37;;;;;;;2.20;1.70;;;;;;;;;;5113758;28;20199;-92
2022/04/15 02:36:05;;;;;;;2.70;2.00;;;;;;;;;;5113608;28;20678;-92
2022/04/15 02:38:32;;;;;;;2.07;1.70;;;;;;;;;;5113591;28;20218;-92
2022/04/15 02:41:00;;;;;;;1.50;1.40;;;;;;;;;;5113858;28;20208;-91
2022/04/15 02:43:31;;;;;;;2.57;2.00;;;;;;;;;;5113236;28;20200;-91
2022/04/15 02:45:59;;;;;;;3.87;2.10;;;;;;;;;;5131785;27;20206;-91
2022/04/15 02:48:26;;;;;;;2.70;1.90;;;;;;;;;;5128129;27;20283;-93
2022/04/15 02:50:55;;;;;;;4.03;1.80;;;;;;;;;;5113005;28;20696;-90
2022/04/15 02:53:23;;;;;;;1.60;1.50;;;;;;;;;;5113336;28;20273;-92
2022/04/15 02:55:51;;;;;;;3.43;2.10;;;;;;;;;;5113309;28;20239;-92
2022/04/15 02:58:18;;;;;;;2.10;1.90;;;;;;;;;;5113033;28;20269;-92
2022/04/15 03:00:45;;;;;;;2.70;1.60;;;;;;;;;;5113529;28;20211;-91
2022/04/15 03:03:13;;;;;;;2.63;1.60;;;;;;;;;;5113586;28;20203;-91
2022/04/15 03:05:40;;;;;;;2.53;1.83;;;;;;;;;;5113298;28;20257;-91
2022/04/15 03:08:09;;;;;;;2.20;2.00;;;;;;;;;;5113135;28;20650;-92
2022/04/15 03:10:37;;;;;;;1.90;1.70;;;;;;;;;;5113224;28;20204;-91
2022/04/15 03:13:04;;;;;;;2.10;1.93;;;;;;;;;;5113164;28;20207;-92
2022/04/15 03:15:32;;;;;;;2.10;1.90;;;;;;;;;;5113046;28;20224;-91
2022/04/15 03:18:00;;;;;;;5.03;1.80;;;;;;;;;;5111782;28;20225;-92
2022/04/15 03:20:28;;;;;;;2.40;1.90;;;;;;;;;;5112998;28;20685;-91
2022/04/15 03:22:55;;;;;;;2.23;2.00;;;;;;;;;;5113078;28;20208;-92
2022/04/15 03:25:24;;;;;;;3.07;1.93;;;;;;;;;;5112562;28;20288;-91
2022/04/15 03:27:52;;;;;;;1.67;1.57;;;;;;;;;;5111679;28;20227;-93
2022/04/15 03:30:20;;;;;;;2.07;1.90;;;;;;;;;;5112756;28;20210;-91
2022/04/15 03:32:47;;;;;;;2.03;1.93;;;;;;;;;;5113824;28;20252;-91
2022/04/15 03:35:16;;;;;;;2.10;1.83;;;;;;;;;;5113330;28;20245;-91
2022/04/15 03:37:44;;;;;;;2.00;1.80;;;;;;;;;;5113417;28;20224;-92
2022/04/15 03:40:11;;;;;;;2.10;1.90;;;;;;;;;;5113215;28;20561;-92
2022/04/15 03:42:48;;;;;;;1.43;1.37;;;;;;;;;;5113143;28;20204;-91
2022/04/15 03:45:18;;;;;;;2.50;2.30;;;;;;;;;;5092610;28;20196;-91
2022/04/15 03:47:45;;;;;;;2.43;2.23;;;;;;;;;;5092354;28;20236;-92
2022/04/15 03:50:13;;;;;;;2.37;2.17;;;;;;;;;;5096415;28;20198;-92
2022/04/15 03:52:42;;;;;;;1.73;1.63;;;;;;;;;;5112592;28;20340;-92
2022/04/15 03:55:11;;;;;;;1.93;1.80;;;;;;;;;;5112572;28;20255;-91
2022/04/15 03:57:38;;;;;;;2.70;1.87;;;;;;;;;;5112399;28;20636;-91
2022/04/15 04:00:09;;;;;;;1.93;1.83;;;;;;;;;;5112301;28;20201;-91
2022/04/15 04:02:36;;;;;;;2.20;1.93;;;;;;;;;;5112677;28;20303;-92
2022/04/15 04:05:04;;;;;;;2.80;1.60;;;;;;;;;;5112556;28;20201;-93
2022/04/15 04:07:31;;;;;;;4.13;1.90;;;;;;;;;;5111879;28;20695;-92
2022/04/15 04:09:58;;;;;;;1.87;1.70;;;;;;;;;;5112602;28;20265;-92
2022/04/15 04:12:26;;;;;;;3.47;2.07;;;;;;;;;;5112602;28;20204;-92
2022/04/15 04:14:53;;;;;;;3.10;2.80;;;;;;;;;;5111977;28;20244;-92
2022/04/15 04:17:22;;;;;;;3.10;2.00;;;;;;;;;;5112125;28;20272;-92
2022/04/15 04:19:50;;;;;;;2.70;1.90;;;;;;;;;;5112707;28;20216;-94
2022/04/15 04:22:17;;;;;;;4.40;2.00;;;;;;;;;;5112677;28;20204;-94
2022/04/15 04:24:44;;;;;;;1.80;1.70;;;;;;;;;;5112365;28;20196;-92
2022/04/15 04:27:12;;;;;;;3.40;1.93;;;;;;;;;;5112277;28;20606;-92
2022/04/15 04:29:39;;;;;;;2.27;1.87;;;;;;;;;;5112335;28;20261;-91
2022/04/15 04:32:06;;;;;;;2.17;1.73;;;;;;;;;;5112233;28;20343;-91
2022/04/15 04:34:35;;;;;;;2.20;1.87;;;;;;;;;;5112198;28;20253;-92
2022/04/15 04:37:02;;;;;;;3.10;1.80;;;;;;;;;;5112457;28;20224;-92
2022/04/15 04:39:36;;;;;;;2.20;1.80;;;;;;;;;;5115433;28;20249;-92
2022/04/15 04:42:04;;;;;;;1.80;1.70;;;;;;;;;;5116216;28;20257;-92
2022/04/15 04:44:31;;;;;;;2.47;1.70;;;;;;;;;;5116163;28;20596;-91
2022/04/15 04:46:59;;;;;;;2.70;1.67;;;;;;;;;;5115786;28;20228;-93
2022/04/15 04:49:27;;;;;;;1.90;1.80;;;;;;;;;;5116111;28;20723;-92
2022/04/15 04:51:56;;;;;;;2.73;2.00;;;;;;;;;;5115813;28;20208;-92
2022/04/15 04:54:23;;;;;;;2.30;1.60;;;;;;;;;;5115657;28;20306;-92
2022/04/15 04:56:50;;;;;;;2.20;2.00;;;;;;;;;;5115203;28;20683;-92
2022/04/15 04:59:18;;;;;;;2.80;1.90;;;;;;;;;;5114726;28;20211;-92
2022/04/15 05:01:45;;;;;;;1.93;1.77;;;;;;;;;;5114318;28;20208;-91
2022/04/15 05:04:12;;;;;;;6.00;1.87;;;;;;;;;;5115702;28;20212;-92
2022/04/15 05:06:40;;;;;;;2.57;1.80;;;;;;;;;;5115353;28;20277;-91
2022/04/15 05:09:09;;;;;;;3.37;1.93;;;;;;;;;;5115497;28;20204;-91
2022/04/15 05:11:36;;;;;;;1.83;1.73;;;;;;;;;;5119525;28;20216;-91
2022/04/15 05:14:04;;;;;;;2.27;2.07;;;;;;;;;;5116073;28;20646;-93
2022/04/15 05:16:32;;;;;;;2.43;2.23;;;;;;;;;;5115137;28;20276;-92
2022/04/15 05:18:59;;;;;;;3.07;2.10;;;;;;;;;;5115031;28;20204;-92
2022/04/15 05:21:26;;;;;;;6.20;1.80;;;;;;;;;;5115099;28;20211;-91
2022/04/15 05:23:54;;;;;;;5.53;1.97;;;;;;;;;;5115159;28;20615;-91
2022/04/15 05:26:22;;;;;;;2.93;2.17;;;;;;;;;;5115204;28;20208;-92
2022/04/15 05:28:51;;;;;;;2.33;1.90;;;;;;;;;;5115567;28;20203;-92
2022/04/15 05:31:19;;;;;;;2.30;2.00;;;;;;;;;;5120950;28;20287;-92
2022/04/15 05:33:46;;;;;;;3.50;2.00;;;;;;;;;;5114916;28;20241;-92
2022/04/15 05:36:14;;;;;;;5.63;1.80;;;;;;;;;;5116617;28;20220;-93
2022/04/15 05:38:42;;;;;;;3.10;1.77;;;;;;;;;;5119419;28;20295;-92
2022/04/15 05:41:09;;;;;;;2.90;1.90;;;;;;;;;;5116354;28;20594;-92
2022/04/15 05:43:38;;;;;;;1.77;1.57;;;;;;;;;;5114918;28;20217;-91
2022/04/15 05:46:05;;;;;;;2.30;2.10;;;;;;;;;;5115107;28;20200;-92
2022/04/15 05:48:33;;;;;;;2.40;2.00;;;;;;;;;;5114849;28;20208;-91
2022/04/15 05:51:00;;;;;;;3.93;1.77;;;;;;;;;;5114868;28;20207;-91
2022/04/15 05:53:27;;;;;;;1.90;1.80;;;;;;;;;;5114544;28;20204;-93
2022/04/15 05:55:55;;;;;;;3.63;2.30;;;;;;;;;;5114497;28;20230;-91
2022/04/15 05:58:22;;;;;;;2.50;1.83;;;;;;;;;;5114558;28;20671;-91
2022/04/15 06:00:51;;;;;;;2.33;1.90;;;;;;;;;;5114251;28;20200;-91
2022/04/15 06:03:20;;;;;;;1.90;1.80;;;;;;;;;;5114313;28;20252;-92
2022/04/15 06:05:47;;;;;;;4.47;2.03;;;;;;;;;;5114544;28;20207;-91
2022/04/15 06:08:15;;;;;;;3.43;2.40;;;;;;;;;;5114195;28;20271;-92
2022/04/15 06:10:42;;;;;;;3.27;2.30;;;;;;;;;;5114542;28;20203;-92
2022/04/15 06:13:13;;;;;;;2.07;1.87;;;;;;;;;;5113054;28;20200;-91
2022/04/15 06:15:51;;;;;;;3.17;2.20;;;;;;;;;;5112734;28;20235;-92
2022/04/15 06:18:20;;;;;;;2.47;1.87;;;;;;;;;;5113711;28;20228;-92
2022/04/15 06:20:48;;;;;;;2.83;2.27;;;;;;;;;;5113659;28;20235;-92
2022/04/15 06:23:15;;;;;;;2.60;2.20;;;;;;;;;;5114289;28;20199;-92
2022/04/15 06:25:43;;;;;;;5.03;2.50;;;;;;;;;;5114688;28;20200;-94
2022/04/15 06:28:10;;;;;;;2.47;2.27;;;;;;;;;;5115908;28;20223;-93
2022/04/15 06:30:38;;;;;;;2.40;2.30;;;;;;;;;;5117650;28;20587;-93
2022/04/15 06:33:06;;;;;;;2.50;2.30;;;;;;;;;;5114856;28;20208;-92
2022/04/15 06:35:35;;;;;;;3.13;2.40;;;;;;;;;;5114089;28;20227;-92
2022/04/15 06:38:03;;;;;;;2.87;2.67;;;;;;;;;;5113911;28;20227;-92
2022/04/15 06:40:31;;;;;;;5.70;3.07;;;;;;;;;;5114273;28;20216;-92
2022/04/15 06:42:58;;;;;;;2.73;2.53;;;;;;;;;;5114134;28;20212;-92
2022/04/15 06:45:25;;;;;;;5.37;2.80;;;;;;;;;;5113444;28;20563;-92
2022/04/15 06:47:53;;;;;;;4.00;2.60;;;;;;;;;;5113634;28;20220;-92
2022/04/15 06:50:20;;;;;;;3.30;2.80;;;;;;;;;;5114048;28;20204;-92
2022/04/15 06:52:49;;;;;;;3.20;2.93;;;;;;;;;;5113271;28;20257;-92
2022/04/15 06:55:23;;;;;;;4.23;2.90;;;;;;;;;;5113813;28;20192;-91
2022/04/15 06:57:50;;;;;;;4.83;2.70;;;;;;;;;;5113423;28;20701;-92
2022/04/15 07:00:18;;;;;;;3.20;2.70;;;;;;;;;;5113603;28;20220;-92
2022/04/15 07:02:45;;;;;;;4.03;3.23;;;;;;;;;;5114073;28;20227;-92
2022/04/15 07:05:13;;;;;;;3.87;3.10;;;;;;;;;;5114519;28;20209;-92
2022/04/15 07:07:41;;;;;;;3.33;3.03;;;;;;;;;;5114102;28;20232;-92
2022/04/15 07:10:11;;;;;;;3.77;3.03;;;;;;;;;;5113579;28;20212;-92
2022/04/15 07:12:39;;;;;;;3.60;3.20;;;;;;;;;;5113611;28;20332;-91
2022/04/15 07:15:07;;;;;;;3.57;3.10;;;;;;;;;;5113859;28;20544;-93
2022/04/15 07:17:34;;;;;;;4.17;3.63;;;;;;;;;;5113187;28;20231;-92
2022/04/15 07:20:02;;;;;;;4.37;3.97;;;;;;;;;;5113421;28;20215;-91
2022/04/15 07:22:29;;;;;;;3.47;3.20;;;;;;;;;;5113510;28;20215;-92
2022/04/15 07:24:56;;;;;;;3.70;3.40;;;;;;;;;;5113341;28;20227;-92
2022/04/15 07:27:25;;;;;;;6.67;3.43;;;;;;;;;;5113342;28;20215;-92
2022/04/15 07:29:53;;;;;;;4.93;3.37;;;;;;;;;;5112865;28;20218;-92
2022/04/15 07:32:22;;;;;;;2.97;2.77;;;;;;;;;;5112885;28;20695;-92
2022/04/15 07:34:49;;;;;;;4.00;3.20;;;;;;;;;;5113282;28;20294;-91
2022/04/15 07:37:17;;;;;;;5.77;3.90;;;;;;;;;;5112821;28;20247;-92
2022/04/15 07:39:45;;;;;;;5.73;3.90;;;;;;;;;;5113018;28;20260;-93
2022/04/15 07:42:12;;;;;;;5.63;3.87;;;;;;;;;;5113073;28;20249;-92
2022/04/15 07:44:41;;;;;;;6.73;3.83;;;;;;;;;;5113027;28;20298;-92
2022/04/15 07:47:09;;;;;;;5.50;3.43;;;;;;;;;;5112902;28;20223;-92
2022/04/15 07:49:37;;;;;;;5.00;3.73;;;;;;;;;;5113216;28;20199;-92
2022/04/15 07:52:06;;;;;;;3.93;3.40;;;;;;;;;;5112690;28;20546;-92
2022/04/15 07:54:36;;;;;;;5.20;3.70;;;;;;;;;;5112669;28;20210;-92
2022/04/15 07:57:04;;;;;;;5.73;4.07;;;;;;;;;;5112070;28;20236;-91
2022/04/15 07:59:32;;;;;;;4.90;4.13;;;;;;;;;;5111794;28;20242;-92
2022/04/15 08:02:00;;;;;;;5.20;4.13;;;;;;;;;;5111385;28;20202;-92
2022/04/15 08:04:30;;;;;;;4.73;4.33;;;;;;;;;;5112643;28;20268;-92
2022/04/15 08:06:57;;;;;;;5.70;4.20;;;;;;;;;;5112431;28;20226;-93
2022/04/15 08:09:25;;;;;;;6.10;4.33;;;;;;;;;;5112428;28;20667;-92
2022/04/15 08:14:51;;;;;;;5.67;4.47;;;;;;;;;;5116831;28;20314;-91
2022/04/15 08:17:20;;;;;;;6.03;4.70;;;;;;;;;;5116677;28;20235;-91
2022/04/15 08:19:47;;;;;;;5.33;4.70;;;;;;;;;;5116480;28;20203;-92
2022/04/15 08:22:15;;;;;;;5.10;4.60;;;;;;;;;;5116763;28;20211;-92
2022/04/15 08:24:45;;;;;;;5.17;4.40;;;;;;;;;;5116485;28;20218;-92
2022/04/15 08:27:12;;;;;;;7.17;4.03;;;;;;;;;;5117087;28;20219;-92
2022/04/15 08:29:40;;;;;;;8.50;4.97;;;;;;;;;;5116567;28;20208;-93
2022/04/15 08:32:09;;;;;;;5.27;4.53;;;;;;;;;;5116831;28;20257;-92
2022/04/15 08:34:38;;;;;;;5.87;4.77;;;;;;;;;;5116303;28;20243;-92
2022/04/15 08:37:05;;;;;;;5.10;4.60;;;;;;;;;;5116180;28;20231;-91
2022/04/15 08:39:32;;;;;;;4.83;4.33;;;;;;;;;;5115747;28;20203;-92
2022/04/15 08:42:00;;;;;;;5.13;4.57;;;;;;;;;;5116205;28;20703;-90
2022/04/15 08:44:28;;;;;;;7.57;5.10;;;;;;;;;;5116357;28;20363;-90
2022/04/15 08:46:55;;;;;;;5.77;5.13;;;;;;;;;;5116026;28;20239;-90
2022/04/15 08:49:24;;;;;;;6.43;5.10;;;;;;;;;;5116058;28;20211;-91
2022/04/15 08:51:53;;;;;;;6.87;5.33;;;;;;;;;;5116093;28;20263;-89
2022/04/15 08:54:20;;;;;;;9.90;5.47;;;;;;;;;;5116066;28;20717;-89
2022/04/15 08:56:48;;;;;;;6.13;5.30;;;;;;;;;;5115635;28;20291;-89
2022/04/15 08:59:15;;;;;;;6.00;4.90;;;;;;;;;;5115893;28;20245;-89
2022/04/15 09:01:43;;;;;;;6.80;5.40;;;;;;;;;;5115975;28;20230;-89
2022/04/15 09:04:10;;;;;;;5.22;4.72;;;;;;;;;;5115733;28;20650;-89
2022/04/15 09:06:38;;;;;;;7.97;5.63;;;;;;;;;;5115753;28;20219;-90
2022/04/15 09:09:11;;;;;;;6.90;5.73;;;;;;;;;;5115590;28;20203;-90
2022/04/15 09:11:39;;;;;;;6.53;5.57;;;;;;;;;;5115925;28;20207;-90
2022/04/15 09:14:10;;;;;;;7.40;5.50;;;;;;;;;;5115434;28;20626;-89
2022/04/15 09:16:41;;;;;;;8.40;5.80;;;;;;;;;;5115649;28;20227;-90
2022/04/15 09:19:09;;;;;;;8.47;6.17;;;;;;;;;;5115649;28;20219;-89
2022/04/15 09:21:37;;;;;;;9.13;6.60;;;;;;;;;;5111643;28;20220;-90
2022/04/15 09:24:05;;;;;;;8.47;5.83;;;;;;;;;;5113738;28;20669;-89
2022/04/15 09:26:34;;;;;;;6.93;5.33;;;;;;;;;;5114735;28;20248;-89
2022/04/15 09:29:01;;;;;;;7.97;6.60;;;;;;;;;;5115074;28;20217;-89
2022/04/15 09:31:28;;;;;;;7.50;6.80;;;;;;;;;;5104502;28;20596;-89
2022/04/15 09:33:57;;;;;;;8.67;6.13;;;;;;;;;;5112271;28;20262;-89
2022/04/15 09:36:31;;;;;;;8.43;6.67;;;;;;;;;;5114767;28;20284;-90
2022/04/15 09:38:59;;;;;;;9.43;6.50;;;;;;;;;;5109869;27;20304;-91
2022/04/15 09:41:29;;;;;;;6.97;6.13;;;;;;;;;;5114222;28;20271;-90
2022/04/15 09:43:59;;;;;;;7.33;5.57;;;;;;;;;;5114551;28;20212;-90
2022/04/15 09:46:30;;;;;;;6.10;5.50;;;;;;;;;;5114433;28;20281;-89
2022/04/15 09:49:02;;;;;;;12.33;8.00;;;;;;;;;;5105529;28;20560;-89
2022/04/15 09:51:31;;;;;;;7.33;6.20;;;;;;;;;;5114297;28;20197;-89
2022/04/15 09:54:01;;;;;;;6.57;5.87;;;;;;;;;;5114524;28;20217;-89
2022/04/15 09:56:28;;;;;;;8.70;5.57;;;;;;;;;;5104804;28;20228;-89
2022/04/15 09:58:56;;;;;;;8.97;6.13;;;;;;;;;;5111667;28;20215;-90
2022/04/15 10:01:28;;;;;;;6.67;6.07;;;;;;;;;;5114310;28;20210;-89
2022/04/15 10:03:56;;;;;;;6.93;6.10;;;;;;;;;;5114625;28;20213;-89
2022/04/15 10:06:23;;;;;;;9.27;6.40;;;;;;;;;;5109005;28;20644;-89
2022/04/15 10:08:52;;;;;;;7.53;6.23;;;;;;;;;;5109590;28;20215;-90
2022/04/15 10:11:20;;;;;;;8.00;6.37;;;;;;;;;;5114598;28;20209;-90
2022/04/15 10:13:47;;;;;;;7.17;5.57;;;;;;;;;;5111251;28;20255;-90
2022/04/15 10:16:14;;;;;;;6.43;5.53;;;;;;;;;;5107849;28;20205;-90
2022/04/15 10:18:46;;;;;;;7.50;6.07;;;;;;;;;;5113677;28;20201;-89
2022/04/15 10:21:14;;;;;;;6.90;6.20;;;;;;;;;;5114007;28;20231;-89
2022/04/15 10:23:41;;;;;;;7.27;6.00;;;;;;;;;;5111528;27;20215;-89
2022/04/15 10:26:09;;;;;;;7.37;5.97;;;;;;;;;;5113690;28;20200;-89
2022/04/15 10:28:40;;;;;;;8.47;7.57;;;;;;;;;;5113383;28;20197;-89
2022/04/15 10:31:08;;;;;;;11.57;8.60;;;;;;;;;;5107568;28;20211;-89
2022/04/15 10:33:36;;;;;;;8.00;7.00;;;;;;;;;;5105434;28;20209;-89
2022/04/15 10:36:13;;;;;;;8.63;7.20;;;;;;;;;;5112485;28;20572;-91
2022/04/15 10:38:56;;;;;;;10.97;6.67;;;;;;;;;;5103667;27;20207;-90
2022/04/15 10:41:23;;;;;;;8.90;7.10;;;;;;;;;;5098046;28;20200;-90
2022/04/15 10:43:56;;;;;;;7.37;6.53;;;;;;;;;;5111053;28;20265;-90
2022/04/15 10:46:30;;;;;;;6.40;5.17;;;;;;;;;;5107666;28;20200;-91
2022/04/15 10:49:20;;;;;;;5.60;4.77;;;;;;;;;;5102855;28;20199;-89
2022/04/15 10:51:52;;;;;;;7.50;6.70;;;;;;;;;;5112162;28;20289;-90
2022/04/15 10:54:42;;;;;;;7.37;5.50;;;;;;;;;;5103708;27;20226;-90
2022/04/15 10:57:14;;;;;;;3.43;2.90;;;;;;;;;;5104355;28;20494;-89
2022/04/15 11:02:38;;;;;;;4.43;3.97;;;;;;;;;;5112664;28;20193;-90
2022/04/15 11:05:06;;;;;;;5.90;4.23;;;;;;;;;;5113169;28;20208;-89
2022/04/15 11:07:44;;;;;;;4.90;4.37;;;;;;;;;;5113581;28;20235;-90
2022/04/15 11:10:17;;;;;;;4.37;3.80;;;;;;;;;;5107165;28;20233;-91
2022/04/15 11:12:45;;;;;;;6.13;4.53;;;;;;;;;;5113046;28;20641;-91
2022/04/15 11:15:15;;;;;;;4.73;3.90;;;;;;;;;;5113390;28;20204;-91
2022/04/15 11:17:52;;;;;;;3.90;3.50;;;;;;;;;;5105471;28;20736;-90
2022/04/15 11:20:19;;;;;;;3.67;2.83;;;;;;;;;;5106282;28;20222;-91
2022/04/15 11:22:49;;;;;;;5.07;2.67;;;;;;;;;;5119955;28;20238;-91
2022/04/15 11:25:16;;;;;;;3.77;2.70;;;;;;;;;;5099018;28;20267;-90
2022/04/15 11:27:44;;;;;;;4.50;2.60;;;;;;;;;;5101612;28;20223;-91
2022/04/15 11:30:14;;;;;;;3.87;3.47;;;;;;;;;;5104952;28;20207;-89
2022/04/15 11:32:51;;;;;;;7.03;4.30;;;;;;;;;;5113429;28;20345;-91
2022/04/15 11:35:28;;;;;;;4.20;3.80;;;;;;;;;;5114677;28;20196;-89
2022/04/15 11:38:04;;;;;;;5.23;4.73;;;;;;;;;;5115534;28;20234;-90
2022/04/15 11:40:34;;;;;;;5.67;4.80;;;;;;;;;;5114695;28;20203;-90
2022/04/15 11:43:01;;;;;;;5.47;4.30;;;;;;;;;;5107304;28;20236;-90
2022/04/15 11:45:32;;;;;;;5.00;4.27;;;;;;;;;;5109119;28;20204;-90
2022/04/15 11:48:17;;;;;;;4.63;4.13;;;;;;;;;;5112319;28;20273;-89
2022/04/15 11:50:47;;;;;;;5.60;4.30;;;;;;;;;;5112624;28;20219;-89
2022/04/15 11:53:30;;;;;;;4.63;4.23;;;;;;;;;;5108527;28;20229;-89
2022/04/15 11:56:04;;;;;;;5.50;4.13;;;;;;;;;;5112304;28;20295;-91
2022/04/15 11:58:39;;;;;;;6.00;4.53;;;;;;;;;;5101892;28;20236;-89
2022/04/15 12:01:13;;;;;;;4.40;3.97;;;;;;;;;;5112401;28;20200;-89
2022/04/15 12:03:43;;;;;;;6.30;5.03;;;;;;;;;;5112842;28;20206;-91
2022/04/15 12:06:10;;;;;;;5.97;4.00;;;;;;;;;;5108418;28;20285;-90
2022/04/15 12:08:39;;;;;;;4.60;4.20;;;;;;;;;;5108503;28;20203;-90
2022/04/15 12:11:06;;;;;;;7.63;4.60;;;;;;;;;;5112663;28;20204;-90
2022/04/15 12:13:42;;;;;;;5.77;4.27;;;;;;;;;;5101490;28;20215;-91
2022/04/15 12:16:11;;;;;;;4.73;4.33;;;;;;;;;;5103915;28;20204;-91
2022/04/15 12:18:39;;;;;;;6.27;4.00;;;;;;;;;;5112653;28;20220;-91
2022/04/15 12:21:06;;;;;;;4.00;3.50;;;;;;;;;;5100299;28;20584;-91
2022/04/15 12:23:34;;;;;;;5.57;3.97;;;;;;;;;;5100530;28;20242;-90
2022/04/15 12:26:09;;;;;;;4.37;3.67;;;;;;;;;;5111875;28;20218;-90
2022/04/15 12:31:29;;;;;;;4.33;3.70;;;;;;;;;;5105742;28;20657;-91
2022/04/15 12:33:57;;;;;;;5.37;4.43;;;;;;;;;;5102695;28;20203;-91
2022/04/15 12:36:24;;;;;;;5.33;4.60;;;;;;;;;;5111993;28;20214;-90
2022/04/15 12:38:59;;;;;;;6.27;4.57;;;;;;;;;;5112193;28;20599;-91
2022/04/15 12:41:40;;;;;;;5.87;3.70;;;;;;;;;;5107855;28;20232;-91
2022/04/15 12:44:17;;;;;;;5.07;3.90;;;;;;;;;;5111241;28;20224;-91
2022/04/15 12:46:45;;;;;;;3.80;3.30;;;;;;;;;;5112309;28;20223;-90
2022/04/15 12:49:23;;;;;;;3.80;3.00;;;;;;;;;;5110263;28;20200;-91
2022/04/15 12:51:50;;;;;;;5.43;3.07;;;;;;;;;;5105729;28;20546;-91
2022/04/15 12:54:18;;;;;;;4.60;3.57;;;;;;;;;;5111375;28;20193;-91
2022/04/15 12:56:59;;;;;;;4.93;3.70;;;;;;;;;;5110711;28;20651;-90
2022/04/15 12:59:27;;;;;;;5.17;3.60;;;;;;;;;;5106065;28;20212;-91
2022/04/15 13:01:54;;;;;;;6.47;3.70;;;;;;;;;;5113445;28;20200;-91
2022/04/15 13:04:22;;;;;;;3.83;3.33;;;;;;;;;;5115064;28;20245;-90
2022/04/15 13:06:49;;;;;;;4.13;3.50;;;;;;;;;;5110952;28;20303;-91
2022/04/15 13:09:20;;;;;;;5.00;4.50;;;;;;;;;;5105659;28;20201;-90
2022/04/15 13:11:47;;;;;;;5.00;4.27;;;;;;;;;;5115355;28;20549;-91
2022/04/15 13:14:16;;;;;;;5.03;4.17;;;;;;;;;;5115215;28;20257;-91
2022/04/15 13:16:43;;;;;;;4.40;3.80;;;;;;;;;;5106434;28;20281;-90
2022/04/15 13:19:11;;;;;;;4.97;3.87;;;;;;;;;;5105621;28;20232;-90
2022/04/15 13:21:39;;;;;;;4.63;3.60;;;;;;;;;;5108780;28;20224;-90
2022/04/15 13:24:19;;;;;;;3.50;3.20;;;;;;;;;;5115342;27;20203;-90
2022/04/15 13:26:47;;;;;;;4.97;3.77;;;;;;;;;;5110494;28;20221;-90
2022/04/15 13:29:14;;;;;;;4.90;3.40;;;;;;;;;;5109909;27;20647;-89
2022/04/15 13:31:43;;;;;;;5.03;3.73;;;;;;;;;;5122300;27;20218;-91
2022/04/15 13:34:10;;;;;;;5.17;3.57;;;;;;;;;;5114844;27;20249;-91
2022/04/15 13:36:38;;;;;;;5.60;3.93;;;;;;;;;;5106374;27;20217;-91
2022/04/15 13:39:05;;;;;;;5.10;4.03;;;;;;;;;;5113038;27;20223;-90
2022/04/15 13:41:33;;;;;;;6.37;4.33;;;;;;;;;;5113599;28;20204;-91
2022/04/15 13:44:00;;;;;;;4.90;4.00;;;;;;;;;;5116820;28;20227;-90
2022/04/15 13:46:28;;;;;;;3.63;3.33;;;;;;;;;;5111537;28;20204;-92
2022/04/15 13:48:59;;;;;;;5.47;4.20;;;;;;;;;;5113985;27;20231;-91
2022/04/15 13:51:28;;;;;;;4.00;3.60;;;;;;;;;;5115286;27;20658;-91
2022/04/15 13:56:41;;;;;;;4.30;3.10;;;;;;;;;;5112056;28;20605;-91
2022/04/15 13:59:09;;;;;;;6.10;3.67;;;;;;;;;;5113833;28;20225;-91
2022/04/15 14:01:39;;;;;;;5.57;3.30;;;;;;;;;;5111541;28;20214;-91
2022/04/15 14:04:10;;;;;;;5.10;3.23;;;;;;;;;;5104708;28;20201;-91
2022/04/15 14:06:38;;;;;;;3.70;2.97;;;;;;;;;;5111662;28;20318;-90
2022/04/15 14:09:05;;;;;;;2.60;2.40;;;;;;;;;;5114383;28;20219;-91
2022/04/15 14:11:33;;;;;;;2.80;2.60;;;;;;;;;;5107084;28;20201;-92
2022/04/15 14:14:01;;;;;;;4.30;2.70;;;;;;;;;;5113940;28;20243;-91
2022/04/15 14:16:29;;;;;;;3.33;2.70;;;;;;;;;;5115889;28;20602;-91
2022/04/15 14:18:56;;;;;;;5.10;3.00;;;;;;;;;;5115401;28;20299;-91
2022/04/15 14:21:25;;;;;;;2.73;2.20;;;;;;;;;;5108714;28;20205;-91
2022/04/15 14:23:53;;;;;;;3.07;2.80;;;;;;;;;;5114702;28;20621;-91
2022/04/15 14:26:21;;;;;;;6.23;3.37;;;;;;;;;;5117514;27;20213;-91
2022/04/15 14:28:48;;;;;;;3.43;3.13;;;;;;;;;;5114219;28;20661;-90
2022/04/15 14:31:16;;;;;;;4.47;3.50;;;;;;;;;;5108408;28;20305;-92
2022/04/15 14:33:44;;;;;;;5.20;4.20;;;;;;;;;;5114223;28;20208;-91
2022/04/15 14:36:11;;;;;;;4.57;3.40;;;;;;;;;;5114376;28;20762;-91
2022/04/15 14:38:41;;;;;;;3.67;3.33;;;;;;;;;;5112908;28;20286;-91
2022/04/15 14:41:08;;;;;;;4.50;3.77;;;;;;;;;;5102898;28;20227;-91
2022/04/15 14:43:36;;;;;;;4.07;3.67;;;;;;;;;;5113484;28;20209;-92
2022/04/15 14:46:04;;;;;;;5.00;3.37;;;;;;;;;;5114065;28;20287;-91
2022/04/15 14:48:32;;;;;;;3.57;2.60;;;;;;;;;;5111670;28;20233;-91
2022/04/15 14:50:59;;;;;;;4.23;3.27;;;;;;;;;;5107712;27;20612;-90
2022/04/15 14:53:29;;;;;;;5.00;3.00;;;;;;;;;;5117857;27;20210;-91
2022/04/15 14:55:58;;;;;;;4.27;3.07;;;;;;;;;;5134308;27;20208;-91
2022/04/15 14:58:25;;;;;;;3.73;2.57;;;;;;;;;;5107635;27;20270;-90
2022/04/15 15:00:53;;;;;;;3.00;2.37;;;;;;;;;;5111009;27;20204;-90
2022/04/15 15:03:21;;;;;;;3.47;2.63;;;;;;;;;;5113072;28;20197;-90